Time;durP1;ratioP1;P1;durP2;ratioP2;P2;SDS_P1;SDS_P2;PMS_P1;PMS_P2;Temp;Humidity;BMP_temperature;BMP_pressure;BME280_temperature;BME280_humidity;BME280_pressure;Samples;Min_cycle;Max_cycle;Signal;HPM_P1;HPM_P2
2021/04/14 11:20:25;;;;;;;11.10;2.17;;;21.00;35.70;;;;;;5802814;23;20031;-80
2021/04/14 11:22:56;;;;;;;7.63;1.80;;;21.10;35.70;;;;;;4877408;29;20049;-82
2021/04/14 11:25:36;;;;;;;5.20;2.00;;;21.10;35.70;;;;;;4844023;29;20098;-83
2021/04/14 11:28:09;;;;;;;8.30;2.33;;;21.10;35.70;;;;;;4858915;29;20056;-81
2021/04/14 11:30:56;;;;;;;7.82;2.15;;;21.10;35.70;;;;;;4859834;29;20088;-82
2021/04/14 11:33:38;;;;;;;9.77;2.10;;;21.20;35.70;;;;;;4843224;29;20093;-82
2021/04/14 11:36:16;;;;;;;8.27;2.47;;;21.20;35.70;;;;;;4843296;29;20060;-83
2021/04/14 11:38:43;;;;;;;10.93;2.10;;;21.10;35.60;;;;;;4859017;29;20064;-82
2021/04/14 11:41:32;;;;;;;8.27;1.67;;;21.20;35.70;;;;;;4860056;29;20053;-83
2021/04/14 11:43:59;;;;;;;5.10;1.70;;;21.10;35.70;;;;;;4859462;29;20053;-84
2021/04/14 11:46:38;;;;;;;6.25;2.15;;;21.10;35.80;;;;;;4859811;29;20109;-83
2021/04/14 11:49:09;;;;;;;6.28;1.85;;;21.10;35.90;;;;;;4858642;29;20056;-84
2021/04/14 11:51:41;;;;;;;8.10;2.15;;;21.00;35.80;;;;;;4860044;29;20514;-84
2021/04/14 11:54:34;;;;;;;8.70;2.38;;;21.00;35.80;;;;;;4843495;29;20061;-82
2021/04/14 11:57:11;;;;;;;9.63;2.38;;;21.00;35.70;;;;;;4859602;29;20061;-83
2021/04/14 11:59:39;;;;;;;6.18;1.92;;;21.00;35.70;;;;;;4859573;29;20080;-83
2021/04/14 12:02:11;;;;;;;8.70;2.17;;;21.00;35.70;;;;;;4842899;29;20077;-80
2021/04/14 12:04:37;;;;;;;10.15;2.55;;;21.00;35.80;;;;;;4827820;29;20053;-82
2021/04/14 12:07:03;;;;;;;8.13;2.17;;;21.00;35.80;;;;;;4859575;29;20053;-83
2021/04/14 12:09:28;;;;;;;5.50;1.55;;;21.10;35.70;;;;;;4830540;29;20390;-87
2021/04/14 12:12:02;;;;;;;8.43;1.92;;;21.10;35.60;;;;;;4830887;29;20057;-78
2021/04/14 12:14:28;;;;;;;9.85;2.08;;;21.10;35.50;;;;;;4863033;29;20109;-83
2021/04/14 12:16:54;;;;;;;6.40;1.70;;;21.20;35.50;;;;;;4846176;29;20057;-83
2021/04/14 12:19:20;;;;;;;8.32;2.38;;;21.20;35.50;;;;;;4846250;29;20250;-86
2021/04/14 12:21:46;;;;;;;4.65;2.00;;;21.20;35.40;;;;;;4862687;29;20053;-82
2021/04/14 12:24:12;;;;;;;5.50;1.63;;;21.30;35.40;;;;;;4846099;29;20050;-84
2021/04/14 12:26:38;;;;;;;7.30;1.90;;;21.20;35.50;;;;;;4846130;29;20057;-83
2021/04/14 12:29:03;;;;;;;6.88;2.05;;;21.20;35.70;;;;;;4846521;29;20516;-81
2021/04/14 12:31:31;;;;;;;9.07;2.10;;;21.20;35.70;;;;;;4845992;29;20061;-84
2021/04/14 12:33:58;;;;;;;4.28;1.60;;;21.10;35.70;;;;;;4862631;29;20108;-82
2021/04/14 12:36:23;;;;;;;9.07;1.90;;;21.10;35.70;;;;;;4845888;29;20148;-85
2021/04/14 12:38:49;;;;;;;6.40;2.25;;;21.20;35.70;;;;;;4862497;29;20136;-84
2021/04/14 12:41:15;;;;;;;7.78;1.75;;;21.20;35.70;;;;;;4846364;29;20096;-85
2021/04/14 12:43:40;;;;;;;5.63;1.70;;;21.20;35.60;;;;;;4862703;29;20045;-87
2021/04/14 12:46:06;;;;;;;5.65;1.45;;;21.20;35.60;;;;;;4830376;29;20482;-83
2021/04/14 12:48:38;;;;;;;10.65;2.20;;;21.20;35.70;;;;;;4862349;29;20053;-79
2021/04/14 12:51:31;;;;;;;11.35;2.20;;;21.10;35.50;;;;;;4845009;29;20435;-86
2021/04/14 12:54:06;;;;;;;4.68;2.00;;;21.10;35.60;;;;;;4862398;29;20046;-87
2021/04/14 12:56:35;;;;;;;8.80;1.83;;;21.20;35.70;;;;;;4860942;29;20061;-83
2021/04/14 12:59:12;;;;;;;6.18;1.42;;;21.10;35.70;;;;;;4845531;29;20061;-84
2021/04/14 13:01:38;;;;;;;6.75;1.88;;;21.10;35.70;;;;;;4862505;29;20060;-85
2021/04/14 13:04:12;;;;;;;7.25;1.40;;;21.10;35.70;;;;;;4845490;29;20088;-83
2021/04/14 13:06:41;;;;;;;3.78;1.70;;;21.10;35.70;;;;;;4830206;29;20153;-78
2021/04/14 13:09:09;;;;;;;6.38;1.67;;;21.10;35.80;;;;;;4862066;29;20049;-79
2021/04/14 13:11:43;;;;;;;7.05;1.85;;;21.20;35.80;;;;;;4862034;29;20060;-86
2021/04/14 13:14:10;;;;;;;8.82;1.88;;;21.10;35.70;;;;;;4845342;29;21029;-85
2021/04/14 13:16:49;;;;;;;5.07;1.77;;;21.20;35.80;;;;;;4844516;29;20061;-83
2021/04/14 13:19:15;;;;;;;3.67;1.40;;;21.10;35.60;;;;;;4844621;29;20057;-84
2021/04/14 13:21:58;;;;;;;3.25;1.77;;;21.20;35.60;;;;;;4851457;29;20097;-83
2021/04/14 13:24:50;;;;;;;5.55;1.60;;;21.20;35.60;;;;;;4848721;29;20045;-81
2021/04/14 13:27:25;;;;;;;4.13;1.50;;;21.30;35.60;;;;;;4880415;29;20152;-83
2021/04/14 13:30:07;;;;;;;4.78;1.63;;;21.30;35.50;;;;;;4892289;29;20084;-81
2021/04/14 13:32:43;;;;;;;6.15;1.90;;;21.40;35.40;;;;;;4882763;29;20057;-82
2021/04/14 13:36:00;;;;;;;8.55;2.08;;;21.60;35.20;;;;;;4899172;29;20092;-84
2021/04/14 13:38:27;;;;;;;3.35;1.35;;;21.70;35.20;;;;;;4792757;29;20145;-84
2021/04/14 13:41:02;;;;;;;4.90;1.60;;;21.80;34.90;;;;;;4807454;29;20058;-85
